METAR AND TAF INFORMATION
METAR FOR EFTU
ADDS - METARS form results

(0136 UTC 01 June 2020)
Data provider http://aviationweather.gov/metar/data/
 
METAR text: EFTU 010120Z AUTO 02005KT CAVOK 12/06 Q1026
Conditions at: EFTU (TURKU/ABO , FI) observed 0120 UTC 01 June 2020
Temperature: 12.0°C (54°F)
Dewpoint: 6.0°C (43°F) [RH = 67%]
Pressure (altimeter): 30.30 inches Hg (1026.0 mb)
Winds: from the NNE (20 degrees) at 6 MPH (5 knots; 2.6 m/s)
Visibility: 6 or more miles (10+ km)
Ceiling: ceiling and visibility are OK
Clouds: unknown
Weather: no significant weather observed at this time

METAR text: EFTU 010050Z AUTO 03004KT 360V060 CAVOK 12/06 Q1026
Conditions at: EFTU (TURKU/ABO , FI) observed 0050 UTC 01 June 2020
Temperature: 12.0°C (54°F)
Dewpoint: 6.0°C (43°F) [RH = 67%]
Pressure (altimeter): 30.30 inches Hg (1026.0 mb)
Winds: from the NNE (30 degrees) at 5 MPH (4 knots; 2.1 m/s)
Visibility: 6 or more miles (10+ km)
Ceiling: ceiling and visibility are OK
Clouds: unknown
Weather: no significant weather observed at this time

Forecast for: EFTU (TURKU/ABO , FI)
Text: TAF EFTU 312329Z 0100/0124 36005KT CAVOK
Forecast period: 0000 UTC 01 June 2020 to 0000 UTC 02 June 2020
Forecast type: FROM: standard forecast or significant change
Winds: from the N (360 degrees) at 6 MPH (5 knots; 2.6 m/s)
Visibility: 6 or more miles 10+ km)
Ceiling: unknown
Clouds: missing
Weather: NSW  (no significant weather)

 AIRPORT MAP

 RUNWAY INFORMATION
Runway 08 Runway length 8202 ft Runway width 197 ft
Runway elevation 132 ft Runway displaced threshold 0 ft Runway heading 85
Runway 26 Runway length 8202 ft Runway width 197 ft
Runway elevation 141 ft Runway displaced threshold 0 ft Runway heading 265

 AIRPORT FREQUENCIES
Type ATIS Name ATIS Frequency 130.05 MHZ
Type TWR Name TWR Frequency 118.3 MHZ

 AIRPORT NEAR NAVIGATION AIDS
Type NDB Name Lieto Frequency 361 KHZ
Type VOR-DME Name Rusko Frequency 115500 KHZ



Powered by Virtual Airlines Manager [v2.6.2]